createdAt,value
2022-09-28T00:01:19.311Z,14.60
2022-09-28T00:03:48.492Z,14.61
2022-09-28T00:06:21.579Z,14.65
2022-09-28T00:08:52.103Z,14.67
2022-09-28T00:11:21.428Z,14.68
2022-09-28T00:13:52.025Z,14.72
2022-09-28T00:16:21.904Z,14.78
2022-09-28T00:18:50.740Z,14.81
2022-09-28T00:21:24.541Z,14.85
2022-09-28T00:24:12.701Z,14.87
2022-09-28T00:26:55.503Z,14.90
2022-09-28T00:29:33.534Z,14.91
2022-09-28T00:32:12.898Z,14.88
2022-09-28T00:34:45.438Z,14.83
2022-09-28T00:37:13.709Z,14.79
2022-09-28T00:39:41.286Z,14.72
2022-09-28T00:42:20.369Z,14.67
2022-09-28T00:44:49.042Z,14.65
2022-09-28T00:47:40.566Z,14.66
2022-09-28T00:50:28.727Z,14.66
2022-09-28T00:53:10.524Z,14.71
2022-09-28T00:56:10.705Z,14.74
2022-09-28T00:58:47.904Z,14.74
2022-09-28T01:01:15.518Z,14.74
2022-09-28T01:03:48.179Z,14.73
2022-09-28T01:06:23.965Z,14.72
2022-09-28T01:08:55.901Z,14.71
2022-09-28T01:11:24.329Z,14.70
2022-09-28T01:13:54.547Z,14.70
2022-09-28T01:16:47.505Z,14.70
2022-09-28T01:20:16.258Z,14.75
2022-09-28T01:23:12.210Z,14.78
2022-09-28T01:26:18.833Z,14.81
2022-09-28T01:28:47.777Z,14.83
2022-09-28T01:31:16.173Z,14.89
2022-09-28T01:34:21.810Z,14.94
2022-09-28T01:36:53.396Z,14.97
2022-09-28T01:39:43.821Z,14.98
2022-09-28T01:42:22.173Z,14.97
2022-09-28T01:44:51.904Z,14.95
2022-09-28T01:47:22.101Z,14.96
2022-09-28T01:50:00.845Z,14.96
2022-09-28T01:52:43.028Z,15.00
2022-09-28T01:55:30.210Z,15.02
2022-09-28T01:58:13.462Z,14.99
2022-09-28T02:00:47.743Z,14.98
2022-09-28T02:03:24.232Z,14.96
2022-09-28T02:06:02.268Z,14.97
2022-09-28T02:08:36.274Z,15.00
2022-09-28T02:11:14.557Z,15.00
2022-09-28T02:14:03.062Z,15.01
2022-09-28T02:16:38.875Z,14.97
2022-09-28T02:19:10.668Z,14.96
2022-09-28T02:22:30.701Z,14.93
2022-09-28T02:25:09.517Z,14.90
2022-09-28T02:27:59.259Z,14.91
2022-09-28T02:30:30.098Z,14.92
2022-09-28T02:33:12.567Z,14.90
2022-09-28T02:35:42.542Z,14.93
2022-09-28T02:38:11.758Z,14.98
2022-09-28T02:40:40.161Z,14.98
2022-09-28T02:43:23.356Z,14.97
2022-09-28T02:46:04.162Z,15.01
2022-09-28T02:49:27.111Z,15.03
2022-09-28T02:52:44.736Z,15.04
2022-09-28T02:55:40.108Z,15.03
2022-09-28T02:59:06.674Z,15.01
2022-09-28T03:02:11.718Z,15.01
2022-09-28T03:05:02.801Z,15.04
2022-09-28T03:07:34.046Z,15.08
2022-09-28T03:10:15.895Z,15.11
2022-09-28T03:12:46.167Z,15.11
2022-09-28T03:15:27.394Z,15.08
2022-09-28T03:17:56.345Z,15.04
2022-09-28T03:20:25.169Z,15.02
2022-09-28T03:23:19.743Z,15.01
2022-09-28T03:25:40.713Z,15.03
2022-09-28T03:28:08.272Z,15.03
2022-09-28T03:30:38.853Z,15.00
2022-09-28T03:33:06.605Z,14.93
2022-09-28T03:35:34.200Z,14.85
2022-09-28T03:38:01.687Z,14.77
2022-09-28T03:40:30.563Z,14.65
2022-09-28T03:42:59.666Z,14.52
2022-09-28T03:45:27.183Z,14.40
2022-09-28T03:47:55.198Z,14.31
2022-09-28T03:50:22.614Z,14.25
2022-09-28T03:52:50.149Z,14.22
2022-09-28T03:55:17.855Z,14.21
2022-09-28T03:57:45.391Z,14.21
2022-09-28T04:00:13.136Z,14.21
2022-09-28T04:02:43.304Z,14.18
2022-09-28T04:05:11.369Z,14.17
2022-09-28T04:07:39.278Z,14.17
2022-09-28T04:10:07.786Z,14.18
2022-09-28T04:12:35.167Z,14.19
2022-09-28T04:15:05.628Z,14.20
2022-09-28T04:17:37.796Z,14.19
2022-09-28T04:20:10.655Z,14.18
2022-09-28T04:22:41.867Z,14.19
2022-09-28T04:25:09.320Z,14.22
2022-09-28T04:27:56.612Z,14.24
2022-09-28T04:30:24.250Z,14.29
2022-09-28T04:32:53.004Z,14.31
2022-09-28T04:35:20.482Z,14.32
2022-09-28T04:37:48.194Z,14.33
2022-09-28T04:40:15.976Z,14.33
2022-09-28T04:42:43.678Z,14.34
2022-09-28T04:45:11.156Z,14.36
2022-09-28T04:47:43.113Z,14.39
2022-09-28T04:50:29.702Z,14.43
2022-09-28T04:53:18.029Z,14.46
2022-09-28T04:55:46.122Z,14.54
2022-09-28T04:58:13.697Z,14.57
2022-09-28T05:00:41.906Z,14.62
2022-09-28T05:03:47.575Z,14.67
2022-09-28T05:06:22.559Z,14.69
2022-09-28T05:08:57.118Z,14.70
2022-09-28T05:11:24.737Z,14.75
2022-09-28T05:13:52.727Z,14.78
2022-09-28T05:16:20.581Z,14.82
2022-09-28T05:19:06.654Z,14.86
2022-09-28T05:21:33.955Z,14.87
2022-09-28T05:24:06.783Z,14.85
2022-09-28T05:26:35.833Z,14.87
2022-09-28T05:29:03.186Z,14.89
2022-09-28T05:31:36.447Z,14.93
2022-09-28T05:34:11.492Z,14.96
2022-09-28T05:36:40.137Z,14.98
2022-09-28T05:39:09.229Z,15.01
2022-09-28T05:41:36.619Z,15.02
2022-09-28T05:44:03.927Z,15.03
2022-09-28T05:46:31.598Z,15.07
2022-09-28T05:49:00.889Z,15.13
2022-09-28T05:51:28.492Z,15.22
2022-09-28T05:53:57.505Z,15.26
2022-09-28T05:56:30.145Z,15.30
2022-09-28T05:58:58.235Z,15.24
2022-09-28T06:01:28.184Z,15.21
2022-09-28T06:03:57.556Z,15.20
2022-09-28T06:06:25.269Z,15.19
2022-09-28T06:08:52.904Z,15.21
2022-09-28T06:11:38.620Z,15.19
2022-09-28T06:14:57.352Z,15.16
2022-09-28T06:17:24.984Z,15.17
2022-09-28T06:20:12.354Z,15.22
2022-09-28T06:22:57.548Z,15.33
2022-09-28T06:25:27.246Z,15.43
2022-09-28T06:28:06.582Z,15.54
2022-09-28T06:30:37.921Z,15.60
2022-09-28T06:33:12.154Z,15.67
2022-09-28T06:35:40.148Z,15.73
2022-09-28T06:38:07.795Z,15.79
2022-09-28T06:40:35.852Z,15.89
2022-09-28T06:43:11.608Z,15.97
2022-09-28T06:45:57.695Z,16.06
2022-09-28T06:49:19.631Z,16.14
2022-09-28T06:52:40.541Z,16.33
2022-09-28T06:55:57.519Z,16.45
2022-09-28T06:58:26.453Z,16.54
2022-09-28T07:00:59.793Z,16.57
2022-09-28T07:03:29.230Z,16.62
2022-09-28T07:05:59.669Z,16.70
2022-09-28T07:09:06.062Z,16.87
2022-09-28T07:12:10.447Z,17.07
2022-09-28T07:15:24.816Z,17.18
2022-09-28T07:18:03.268Z,17.20
2022-09-28T07:20:43.537Z,17.24
2022-09-28T07:23:19.278Z,17.23
2022-09-28T07:26:08.184Z,17.20
2022-09-28T07:29:26.443Z,17.23
2022-09-28T07:32:12.461Z,17.22
2022-09-28T07:34:58.910Z,17.15
2022-09-28T07:37:45.613Z,17.14
2022-09-28T07:40:31.925Z,17.17
2022-09-28T07:43:06.682Z,17.18
2022-09-28T07:45:36.182Z,17.21
2022-09-28T07:48:03.924Z,17.27
2022-09-28T07:50:34.356Z,17.37
2022-09-28T07:53:28.089Z,17.44
2022-09-28T07:56:16.943Z,17.49
2022-09-28T07:58:53.234Z,17.60
2022-09-28T08:01:43.811Z,17.65
2022-09-28T08:04:14.241Z,17.74
2022-09-28T08:06:44.604Z,17.85
2022-09-28T08:09:13.573Z,17.88
2022-09-28T08:11:59.592Z,17.97
2022-09-28T08:14:47.526Z,18.03
2022-09-28T08:17:33.392Z,18.06
2022-09-28T08:20:24.496Z,18.11
2022-09-28T08:22:52.701Z,18.07
2022-09-28T08:25:20.779Z,18.04
2022-09-28T08:27:49.161Z,18.02
2022-09-28T08:30:16.967Z,18.04
2022-09-28T08:32:53.593Z,18.04
2022-09-28T08:35:40.809Z,18.04
2022-09-28T08:38:49.141Z,18.04
2022-09-28T08:41:38.637Z,18.04
2022-09-28T08:44:23.316Z,18.07
2022-09-28T08:48:26.624Z,18.14
2022-09-28T08:51:21.483Z,18.20
2022-09-28T08:54:16.233Z,18.26
2022-09-28T08:57:19.019Z,18.34
2022-09-28T08:59:50.883Z,18.42
2022-09-28T09:02:32.884Z,18.52
2022-09-28T09:05:50.099Z,18.59
2022-09-28T09:08:49.600Z,18.64
2022-09-28T09:12:11.195Z,18.71
2022-09-28T09:15:38.440Z,18.83
2022-09-28T09:18:31.320Z,18.94
2022-09-28T09:21:39.788Z,19.02
2022-09-28T09:24:26.982Z,19.10
2022-09-28T09:27:28.257Z,19.17
2022-09-28T09:30:11.067Z,19.24
2022-09-28T09:33:24.392Z,19.28
2022-09-28T09:36:50.497Z,19.34
2022-09-28T09:40:00.609Z,19.42
2022-09-28T09:43:16.008Z,19.49
2022-09-28T09:45:59.297Z,19.54
2022-09-28T09:49:40.430Z,19.61
2022-09-28T09:52:44.392Z,19.66
2022-09-28T09:55:41.471Z,19.78
2022-09-28T09:59:11.936Z,20.01
2022-09-28T10:02:02.264Z,20.17
2022-09-28T10:04:46.224Z,20.23
2022-09-28T10:07:28.299Z,20.27
2022-09-28T10:10:01.746Z,20.35
2022-09-28T10:12:49.709Z,20.49
2022-09-28T10:15:24.862Z,20.58
2022-09-28T10:18:14.883Z,20.69
2022-09-28T10:21:00.936Z,20.80
2022-09-28T10:24:28.715Z,20.87
2022-09-28T10:26:57.122Z,20.95
2022-09-28T10:29:37.252Z,20.98
2022-09-28T10:32:21.316Z,20.97
2022-09-28T10:34:51.985Z,21.00
2022-09-28T10:37:21.269Z,21.06
2022-09-28T10:40:44.222Z,21.14
2022-09-28T10:43:38.094Z,21.21
2022-09-28T10:46:21.355Z,21.25
2022-09-28T10:49:01.020Z,21.30
2022-09-28T10:51:43.510Z,21.31
2022-09-28T10:54:21.146Z,21.32
2022-09-28T10:56:53.761Z,21.34
2022-09-28T10:59:30.571Z,21.37
2022-09-28T11:02:33.613Z,21.45
2022-09-28T11:05:27.465Z,21.57
2022-09-28T11:07:59.748Z,21.63
2022-09-28T11:10:32.967Z,21.66
2022-09-28T11:13:09.802Z,21.71
2022-09-28T11:15:41.736Z,21.76
2022-09-28T11:18:31.090Z,21.78
2022-09-28T11:21:19.080Z,21.81
2022-09-28T11:24:19.366Z,21.88
2022-09-28T11:26:52.443Z,21.92
2022-09-28T11:29:43.146Z,21.95
2022-09-28T11:32:16.255Z,22.00
2022-09-28T11:35:02.795Z,22.06
2022-09-28T11:38:21.412Z,22.09
2022-09-28T11:41:52.254Z,22.15
2022-09-28T11:44:38.626Z,22.17
2022-09-28T11:47:29.365Z,22.18
2022-09-28T11:50:06.126Z,22.19
2022-09-28T11:52:49.356Z,22.23
2022-09-28T11:55:43.344Z,22.26
2022-09-28T11:58:30.292Z,22.22
2022-09-28T12:01:21.158Z,22.19
2022-09-28T12:04:38.887Z,22.15
2022-09-28T12:07:23.063Z,22.14
2022-09-28T12:09:58.011Z,22.11
2022-09-28T12:12:37.016Z,22.07
2022-09-28T12:15:23.085Z,22.05
2022-09-28T12:18:10.709Z,22.05
2022-09-28T12:20:53.577Z,22.07
2022-09-28T12:23:33.599Z,22.14
2022-09-28T12:26:10.764Z,22.19
2022-09-28T12:28:48.918Z,22.26
2022-09-28T12:31:24.289Z,22.37
2022-09-28T12:33:52.056Z,22.48
2022-09-28T12:36:41.492Z,22.62
2022-09-28T12:40:03.120Z,22.82
2022-09-28T12:43:10.787Z,22.86
2022-09-28T12:46:10.446Z,22.88
2022-09-28T12:52:15.378Z,22.90
2022-09-28T12:55:21.553Z,22.93
2022-09-28T12:58:06.826Z,22.96
2022-09-28T13:01:13.341Z,22.92
2022-09-28T13:04:19.699Z,22.90
2022-09-28T13:07:05.961Z,22.93
2022-09-28T13:10:13.518Z,22.90
2022-09-28T13:13:14.638Z,22.80
2022-09-28T13:16:17.090Z,22.74
2022-09-28T13:18:56.815Z,22.66
2022-09-28T13:21:47.441Z,22.61
2022-09-28T13:24:33.061Z,22.54
2022-09-28T13:27:39.280Z,22.46
2022-09-28T13:30:07.995Z,22.37
2022-09-28T13:32:38.748Z,22.31
2022-09-28T13:35:06.464Z,22.26
2022-09-28T13:37:34.238Z,22.25
2022-09-28T13:40:05.778Z,22.24
2022-09-28T13:42:45.781Z,22.22
2022-09-28T13:45:22.228Z,22.19
2022-09-28T13:48:24.352Z,22.17
2022-09-28T13:51:06.825Z,22.19
2022-09-28T13:53:46.249Z,22.18
2022-09-28T13:57:03.016Z,22.18
2022-09-28T13:59:33.700Z,22.17
2022-09-28T14:02:26.307Z,22.16
2022-09-28T14:05:06.565Z,22.15
2022-09-28T14:07:33.840Z,22.13
2022-09-28T14:10:41.720Z,22.11
2022-09-28T14:13:09.834Z,22.10
2022-09-28T14:15:37.066Z,22.09
2022-09-28T14:18:28.004Z,22.07
2022-09-28T14:21:41.426Z,22.05
2022-09-28T14:24:52.778Z,22.00
2022-09-28T14:28:04.427Z,21.98
2022-09-28T14:30:37.673Z,21.97
2022-09-28T14:33:27.595Z,21.99
2022-09-28T14:36:01.879Z,22.01
2022-09-28T14:39:05.702Z,22.04
2022-09-28T14:41:41.514Z,22.03
2022-09-28T14:44:17.683Z,22.00
2022-09-28T14:46:46.822Z,21.96
2022-09-28T14:49:17.267Z,21.93
2022-09-28T14:52:03.096Z,21.88
2022-09-28T14:54:52.710Z,21.84
2022-09-28T14:57:28.481Z,21.80
2022-09-28T14:59:59.118Z,21.75
2022-09-28T15:02:32.017Z,21.71
2022-09-28T15:05:18.335Z,21.66
2022-09-28T15:07:51.750Z,21.63
2022-09-28T15:10:32.114Z,21.62
2022-09-28T15:13:03.275Z,21.60
2022-09-28T15:15:40.257Z,21.58
2022-09-28T15:18:33.707Z,21.54
2022-09-28T15:21:01.466Z,21.45
2022-09-28T15:23:39.737Z,21.35
2022-09-28T15:26:22.066Z,21.27
2022-09-28T15:28:49.499Z,21.18
2022-09-28T15:31:25.080Z,21.11
2022-09-28T15:34:11.829Z,21.05
2022-09-28T15:37:08.673Z,20.97
2022-09-28T15:39:36.177Z,20.90
2022-09-28T15:42:05.200Z,20.82
2022-09-28T15:44:36.631Z,20.72
2022-09-28T15:47:16.007Z,20.62
2022-09-28T15:49:56.755Z,20.50
2022-09-28T15:52:35.560Z,20.39
2022-09-28T15:55:16.665Z,20.27
2022-09-28T15:57:44.184Z,20.07
2022-09-28T16:00:20.883Z,19.89
2022-09-28T16:03:01.290Z,19.78
2022-09-28T16:05:35.260Z,19.62
2022-09-28T16:08:04.718Z,19.48
2022-09-28T16:10:34.686Z,19.40
2022-09-28T16:13:18.275Z,19.36
2022-09-28T16:15:45.856Z,19.30
2022-09-28T16:18:13.080Z,19.24
2022-09-28T16:20:40.748Z,19.15
2022-09-28T16:23:33.555Z,19.00
2022-09-28T16:26:16.153Z,18.78
2022-09-28T16:28:46.211Z,18.68
2022-09-28T16:31:13.610Z,18.50
2022-09-28T16:33:45.240Z,18.36
2022-09-28T16:36:16.760Z,18.26
2022-09-28T16:38:45.222Z,18.18
2022-09-28T16:41:15.899Z,18.09
2022-09-28T16:43:43.195Z,17.98
2022-09-28T16:46:14.014Z,17.87
2022-09-28T16:48:48.106Z,17.75
2022-09-28T16:51:16.794Z,17.65
2022-09-28T16:54:03.245Z,17.55
2022-09-28T16:56:34.198Z,17.50
2022-09-28T16:59:02.654Z,17.43
2022-09-28T17:01:31.000Z,17.34
2022-09-28T17:03:58.861Z,17.26
2022-09-28T17:06:26.967Z,17.17
2022-09-28T17:08:57.982Z,17.08
2022-09-28T17:11:26.076Z,16.98
2022-09-28T17:13:58.480Z,16.90
2022-09-28T17:17:03.821Z,16.82
2022-09-28T17:19:24.307Z,16.81
2022-09-28T17:21:52.310Z,16.77
2022-09-28T17:24:20.633Z,16.74
2022-09-28T17:26:50.842Z,16.69
2022-09-28T17:29:18.452Z,16.64
2022-09-28T17:31:46.915Z,16.60
2022-09-28T17:34:16.369Z,16.57
2022-09-28T17:36:44.953Z,16.54
2022-09-28T17:39:15.252Z,16.53
2022-09-28T17:41:45.807Z,16.51
2022-09-28T17:44:15.565Z,16.50
2022-09-28T17:46:48.503Z,16.48
2022-09-28T17:49:17.395Z,16.47
2022-09-28T17:51:45.339Z,16.47
2022-09-28T17:54:16.268Z,16.44
2022-09-28T17:56:43.817Z,16.41
2022-09-28T17:59:14.301Z,16.38
2022-09-28T18:01:43.380Z,16.37
2022-09-28T18:04:22.956Z,16.39
2022-09-28T18:06:55.567Z,16.38
2022-09-28T18:09:24.633Z,16.38
2022-09-28T18:11:59.831Z,16.39
2022-09-28T18:14:28.117Z,16.40
2022-09-28T18:16:56.379Z,16.41
2022-09-28T18:19:26.488Z,16.40
2022-09-28T18:21:57.936Z,16.39
2022-09-28T18:24:25.457Z,16.37
2022-09-28T18:26:52.821Z,16.34
2022-09-28T18:29:20.307Z,16.33
2022-09-28T18:31:48.398Z,16.34
2022-09-28T18:34:16.332Z,16.34
2022-09-28T18:36:43.868Z,16.36
2022-09-28T18:39:11.672Z,16.38
2022-09-28T18:41:39.353Z,16.41
2022-09-28T18:44:06.904Z,16.39
2022-09-28T18:46:36.123Z,16.35
2022-09-28T18:49:04.781Z,16.32
2022-09-28T18:51:33.005Z,16.26
2022-09-28T18:54:07.230Z,16.19
2022-09-28T18:56:36.872Z,16.12
2022-09-28T18:59:09.956Z,16.04
2022-09-28T19:01:41.226Z,15.99
2022-09-28T19:04:10.257Z,15.93
2022-09-28T19:06:40.329Z,15.86
2022-09-28T19:09:08.442Z,15.81
2022-09-28T19:11:36.146Z,15.75
2022-09-28T19:14:03.797Z,15.68
2022-09-28T19:16:33.708Z,15.64
2022-09-28T19:19:02.494Z,15.61
2022-09-28T19:21:30.815Z,15.58
2022-09-28T19:24:02.790Z,15.53
2022-09-28T19:26:32.414Z,15.48
2022-09-28T19:29:00.734Z,15.44
2022-09-28T19:31:29.833Z,15.40
2022-09-28T19:33:57.389Z,15.34
2022-09-28T19:36:27.945Z,15.27
2022-09-28T19:38:57.635Z,15.19
2022-09-28T19:41:43.146Z,15.10
2022-09-28T19:44:33.167Z,15.05
2022-09-28T19:47:11.261Z,14.99
2022-09-28T19:49:41.265Z,14.89
2022-09-28T19:52:16.994Z,14.76
2022-09-28T19:54:56.839Z,14.63
2022-09-28T19:57:32.380Z,14.56
2022-09-28T20:00:03.191Z,14.54
2022-09-28T20:02:34.844Z,14.50
2022-09-28T20:05:03.050Z,14.49
2022-09-28T20:07:33.194Z,14.45
2022-09-28T20:10:00.902Z,14.38
2022-09-28T20:12:28.641Z,14.33
2022-09-28T20:14:56.223Z,14.25
2022-09-28T20:17:23.776Z,14.19
2022-09-28T20:19:51.447Z,14.14
2022-09-28T20:22:19.657Z,14.10
2022-09-28T20:24:47.387Z,14.06
2022-09-28T20:27:14.832Z,14.01
2022-09-28T20:29:42.747Z,13.95
2022-09-28T20:32:11.758Z,13.90
2022-09-28T20:34:39.137Z,13.84
2022-09-28T20:37:06.880Z,13.80
2022-09-28T20:39:34.409Z,13.76
2022-09-28T20:42:02.454Z,13.76
2022-09-28T20:44:30.585Z,13.76
2022-09-28T20:46:58.468Z,13.74
2022-09-28T20:49:27.631Z,13.72
2022-09-28T20:51:55.376Z,13.67
2022-09-28T20:54:22.912Z,13.60
2022-09-28T20:56:50.465Z,13.53
2022-09-28T20:59:18.092Z,13.49
2022-09-28T21:01:45.715Z,13.51
2022-09-28T21:04:13.448Z,13.48
2022-09-28T21:06:41.982Z,13.45
2022-09-28T21:09:10.823Z,13.40
2022-09-28T21:11:39.161Z,13.35
2022-09-28T21:14:09.726Z,13.34
2022-09-28T21:16:37.967Z,13.33
2022-09-28T21:19:05.698Z,13.33
2022-09-28T21:21:33.455Z,13.33
2022-09-28T21:24:01.983Z,13.32
2022-09-28T21:26:30.655Z,13.29
2022-09-28T21:29:07.680Z,13.22
2022-09-28T21:31:54.616Z,13.16
2022-09-28T21:34:22.251Z,13.17
2022-09-28T21:36:50.879Z,13.17
2022-09-28T21:39:18.978Z,13.15
2022-09-28T21:41:46.750Z,13.13
2022-09-28T21:44:14.343Z,13.11
2022-09-28T21:46:42.297Z,13.06
2022-09-28T21:49:10.326Z,13.00
2022-09-28T21:51:38.028Z,12.95
2022-09-28T21:54:05.632Z,12.93
2022-09-28T21:56:33.575Z,12.91
2022-09-28T21:59:01.125Z,12.90
2022-09-28T22:01:31.266Z,12.89
2022-09-28T22:04:00.177Z,12.90
2022-09-28T22:06:27.721Z,12.89
2022-09-28T22:08:55.940Z,12.90
2022-09-28T22:11:26.369Z,12.90
2022-09-28T22:13:58.907Z,12.88
2022-09-28T22:16:30.226Z,12.86
2022-09-28T22:18:59.157Z,12.86
2022-09-28T22:21:31.392Z,12.90
2022-09-28T22:24:03.387Z,12.93
2022-09-28T22:26:33.552Z,12.92
2022-09-28T22:29:04.885Z,12.90
2022-09-28T22:31:38.987Z,12.90
2022-09-28T22:34:07.656Z,12.92
2022-09-28T22:36:35.739Z,12.82
2022-09-28T22:39:04.208Z,12.98
2022-09-28T22:41:31.743Z,13.01
2022-09-28T22:43:59.782Z,13.05
2022-09-28T22:46:31.409Z,13.09
2022-09-28T22:48:59.849Z,13.13
2022-09-28T22:51:29.129Z,13.18
2022-09-28T22:53:57.681Z,13.12
2022-09-28T22:56:26.344Z,13.28
2022-09-28T22:58:54.735Z,13.35
2022-09-28T23:01:29.412Z,13.43
2022-09-28T23:03:58.393Z,13.46
2022-09-28T23:06:30.644Z,13.47
2022-09-28T23:08:59.258Z,13.47
2022-09-28T23:11:28.650Z,13.47
2022-09-28T23:13:58.542Z,13.48
2022-09-28T23:16:29.477Z,13.51
2022-09-28T23:18:57.119Z,13.49
2022-09-28T23:21:26.755Z,13.52
2022-09-28T23:23:57.050Z,13.57
2022-09-28T23:26:28.257Z,13.60
2022-09-28T23:28:56.062Z,13.59
2022-09-28T23:31:27.523Z,13.57
2022-09-28T23:34:03.580Z,13.57
2022-09-28T23:36:31.739Z,13.57
2022-09-28T23:38:59.456Z,13.58
2022-09-28T23:41:27.217Z,13.56
2022-09-28T23:43:54.680Z,13.50
2022-09-28T23:46:22.090Z,13.43
2022-09-28T23:48:49.946Z,13.33
2022-09-28T23:51:17.356Z,13.27
2022-09-28T23:53:45.287Z,13.25
2022-09-28T23:56:14.139Z,13.26
2022-09-28T23:58:41.600Z,13.30
